Time;durP1;ratioP1;P1;durP2;ratioP2;P2;SDS_P1;SDS_P2;PMS_P1;PMS_P2;Temp;Humidity;BMP_temperature;BMP_pressure;BME280_temperature;BME280_humidity;BME280_pressure;Samples;Min_cycle;Max_cycle;Signal;HPM_P1;HPM_P2
2021/08/30 00:00:52;;;;;;;3.70;3.40;;;;;;;23.53;45.78;98360.25;5052772;28;20200;-52
2021/08/30 00:03:18;;;;;;;3.93;3.63;;;;;;;23.53;45.90;98367.44;5050214;28;20221;-53
2021/08/30 00:05:45;;;;;;;3.50;3.20;;;;;;;23.54;45.85;98359.22;5050152;28;20190;-53
2021/08/30 00:08:12;;;;;;;4.13;3.70;;;;;;;23.54;45.73;98353.91;5050248;28;20551;-52
2021/08/30 00:10:38;;;;;;;3.50;3.20;;;;;;;23.55;45.88;98360.06;5049227;28;20599;-52
2021/08/30 00:13:05;;;;;;;3.73;3.30;;;;;;;23.57;45.89;98365.22;5049139;28;20727;-54
2021/08/30 00:15:32;;;;;;;3.57;3.23;;;;;;;23.53;45.59;98362.09;5049910;28;20213;-52
2021/08/30 00:17:59;;;;;;;3.47;3.17;;;;;;;23.55;45.96;98360.06;5049960;28;20189;-53
2021/08/30 00:20:26;;;;;;;3.90;3.50;;;;;;;23.53;45.83;98360.25;5049244;28;20190;-54
2021/08/30 00:22:52;;;;;;;3.97;3.60;;;;;;;23.54;45.79;98353.09;5048708;28;20212;-53
2021/08/30 00:25:19;;;;;;;3.00;2.80;;;;;;;23.51;45.96;98354.31;5049330;28;20178;-53
2021/08/30 00:27:46;;;;;;;3.80;3.40;;;;;;;23.52;46.00;98355.13;5049692;28;20520;-52
2021/08/30 00:30:12;;;;;;;3.97;3.57;;;;;;;23.51;45.97;98361.47;5049507;28;20202;-53
2021/08/30 00:32:39;;;;;;;3.43;3.13;;;;;;;23.47;46.08;98358.38;5049718;28;20216;-53
2021/08/30 00:35:06;;;;;;;3.93;3.60;;;;;;;23.47;45.92;98352.22;5049851;28;20198;-52
2021/08/30 00:37:33;;;;;;;3.27;3.00;;;;;;;23.49;46.04;98356.34;5049638;28;20684;-52
2021/08/30 00:40:00;;;;;;;2.93;2.67;;;;;;;23.48;45.87;98354.69;5049950;28;20193;-53
2021/08/30 00:42:27;;;;;;;3.53;3.23;;;;;;;23.50;46.04;98352.66;5048204;28;20214;-52
2021/08/30 00:44:54;;;;;;;3.60;3.30;;;;;;;23.48;45.97;98349.38;5048416;28;20604;-53
2021/08/30 00:47:22;;;;;;;3.50;3.20;;;;;;;23.49;45.87;98356.34;5049435;28;20190;-53
2021/08/30 00:49:50;;;;;;;4.20;3.80;;;;;;;23.51;45.89;98348.97;5049284;28;20194;-52
2021/08/30 00:52:17;;;;;;;3.50;3.10;;;;;;;23.51;45.76;98346.31;5048802;28;20224;-52
2021/08/30 00:54:43;;;;;;;3.40;3.10;;;;;;;23.47;46.02;98350.38;5048914;28;20194;-52
2021/08/30 00:57:10;;;;;;;3.43;3.13;;;;;;;23.46;45.93;98346.09;5048478;28;20268;-52
2021/08/30 00:59:41;;;;;;;3.63;3.33;;;;;;;23.46;45.99;98350.56;5048958;28;20194;-53
2021/08/30 01:02:10;;;;;;;3.50;3.10;;;;;;;23.46;46.08;98346.09;5049419;28;20216;-52
2021/08/30 01:04:40;;;;;;;3.47;3.20;;;;;;;23.47;45.92;98346.88;5049078;28;20190;-52
2021/08/30 01:07:17;;;;;;;3.50;3.20;;;;;;;23.47;45.78;98342.41;5049300;28;20186;-53
2021/08/30 01:10:01;;;;;;;3.20;2.90;;;;;;;23.59;45.59;98331.19;5048646;28;20182;-54
2021/08/30 01:12:43;;;;;;;3.27;2.97;;;;;;;23.50;45.87;98330.53;5048190;28;20206;-53
2021/08/30 01:15:19;;;;;;;3.57;3.17;;;;;;;23.48;46.00;98335.22;5047693;28;20174;-53
2021/08/30 01:17:47;;;;;;;3.03;2.83;;;;;;;23.74;45.24;98331.06;5048613;28;20265;-54
2021/08/30 01:20:45;;;;;;;3.60;3.30;;;;;;;23.50;45.95;98328.69;5048490;28;20217;-52
2021/08/30 01:23:13;;;;;;;2.87;2.57;;;;;;;23.52;45.71;98329.31;5048281;28;20222;-52
2021/08/30 01:25:39;;;;;;;3.47;3.17;;;;;;;23.50;45.63;98331.34;5049101;28;20201;-52
2021/08/30 01:28:07;;;;;;;3.20;3.00;;;;;;;23.55;45.77;98336.09;5048335;28;20205;-52
2021/08/30 01:30:36;;;;;;;3.40;3.10;;;;;;;23.54;45.78;98340.59;5048281;28;20198;-54
2021/08/30 01:33:04;;;;;;;3.33;3.03;;;;;;;23.51;45.73;98335.66;5046749;28;20206;-52
2021/08/30 01:35:32;;;;;;;3.00;2.70;;;;;;;23.56;45.72;98336.91;5048157;28;20217;-52
2021/08/30 01:38:05;;;;;;;3.27;2.97;;;;;;;23.50;45.95;98335.88;5048762;28;20345;-52
2021/08/30 01:40:33;;;;;;;2.73;2.53;;;;;;;23.49;45.87;98340.34;5048264;28;20186;-54
2021/08/30 01:43:00;;;;;;;2.50;2.30;;;;;;;23.45;45.97;98341.78;5047925;28;20228;-54
2021/08/30 01:45:29;;;;;;;3.00;2.70;;;;;;;23.44;46.03;98340.13;5048198;28;20201;-52
2021/08/30 01:47:59;;;;;;;3.47;3.17;;;;;;;23.44;46.00;98342.78;5048620;28;20190;-53
2021/08/30 01:50:28;;;;;;;3.23;2.93;;;;;;;23.43;46.10;98341.16;5048555;28;20539;-52
2021/08/30 01:52:57;;;;;;;2.90;2.70;;;;;;;23.44;46.16;98342.78;5047971;28;20202;-52
2021/08/30 02:00:43;;;;;;;2.60;2.40;;;;;;;23.41;46.05;98359.19;5047926;28;20190;-52
2021/08/30 02:03:20;;;;;;;3.13;2.90;;;;;;;23.37;46.17;98355.22;5047709;28;20233;-50
2021/08/30 02:05:53;;;;;;;2.87;2.57;;;;;;;23.39;46.07;98347.88;5047640;28;20178;-52
2021/08/30 02:08:22;;;;;;;3.07;2.87;;;;;;;23.39;46.03;98361.19;5047814;28;20196;-50
2021/08/30 02:10:54;;;;;;;2.63;2.43;;;;;;;23.38;45.99;98354.22;5047713;28;20266;-51
2021/08/30 02:13:26;;;;;;;3.07;2.87;;;;;;;23.36;46.10;98353.59;5046901;28;20252;-50
2021/08/30 02:15:53;;;;;;;2.80;2.60;;;;;;;23.38;46.28;98348.88;5047456;28;20197;-53
2021/08/30 02:18:37;;;;;;;2.80;2.60;;;;;;;23.36;46.03;98343.78;5047133;28;20599;-50
2021/08/30 02:21:38;;;;;;;2.77;2.57;;;;;;;23.30;46.38;98349.06;5047122;28;20181;-52
2021/08/30 02:24:27;;;;;;;2.90;2.60;;;;;;;23.26;46.42;98348.63;5046824;28;20240;-52
2021/08/30 02:27:02;;;;;;;2.73;2.53;;;;;;;23.23;46.50;98348.97;5046051;28;20186;-50
2021/08/30 02:29:36;;;;;;;3.10;2.90;;;;;;;23.22;46.54;98342.81;5046954;28;20189;-51
2021/08/30 02:32:06;;;;;;;3.10;2.60;;;;;;;23.27;46.30;98344.13;5047225;28;20217;-53
2021/08/30 02:34:35;;;;;;;2.80;2.60;;;;;;;23.29;46.25;98347.41;5046499;28;20614;-52
2021/08/30 02:37:02;;;;;;;2.70;2.50;;;;;;;23.29;46.11;98345.56;5046042;28;20204;-52
2021/08/30 02:39:30;;;;;;;2.40;2.20;;;;;;;23.30;46.26;98351.72;5045854;28;20194;-51
2021/08/30 02:42:00;;;;;;;2.70;2.47;;;;;;;23.31;46.17;98351.50;5046442;28;20197;-54
2021/08/30 02:44:27;;;;;;;2.80;2.60;;;;;;;23.29;46.19;98352.75;5046233;28;20218;-51
2021/08/30 02:46:55;;;;;;;2.90;2.63;;;;;;;23.30;46.36;98351.72;5046354;28;20198;-52
2021/08/30 02:49:23;;;;;;;2.60;2.40;;;;;;;23.33;46.22;98356.66;5046106;28;20199;-51
2021/08/30 02:51:50;;;;;;;2.53;2.33;;;;;;;23.30;46.19;98349.06;5046167;28;20212;-52
2021/08/30 02:54:18;;;;;;;2.67;2.47;;;;;;;23.31;46.18;98353.38;5046707;28;20212;-51
2021/08/30 02:56:45;;;;;;;2.60;2.40;;;;;;;23.24;46.34;98353.28;5045991;28;20216;-53
2021/08/30 02:59:12;;;;;;;2.63;2.43;;;;;;;23.23;46.45;98351.66;5046101;28;20194;-55
2021/08/30 03:01:39;;;;;;;2.90;2.70;;;;;;;23.21;46.32;98346.50;5046012;28;20202;-55
2021/08/30 03:04:06;;;;;;;2.70;2.50;;;;;;;23.26;46.19;98345.97;5045760;28;20206;-53
2021/08/30 03:06:33;;;;;;;2.80;2.60;;;;;;;23.28;46.32;98351.09;5045122;28;20194;-53
2021/08/30 03:09:00;;;;;;;2.50;2.30;;;;;;;23.28;46.03;98348.44;5045661;28;20236;-53
2021/08/30 03:11:28;;;;;;;2.63;2.43;;;;;;;23.54;45.57;98343.25;5046167;28;20201;-53
2021/08/30 03:13:57;;;;;;;2.23;2.10;;;;;;;23.43;45.81;98342.97;5045015;28;20206;-54
2021/08/30 03:16:26;;;;;;;2.80;2.60;;;;;;;23.43;45.72;98342.97;5045882;28;20196;-53
2021/08/30 03:18:56;;;;;;;3.03;2.73;;;;;;;23.34;46.04;98348.47;5045743;28;20194;-54
2021/08/30 03:21:28;;;;;;;2.63;2.43;;;;;;;23.27;46.10;98331.63;5044884;28;20260;-54
2021/08/30 03:23:56;;;;;;;2.60;2.40;;;;;;;23.27;46.13;98339.59;5045988;28;20237;-53
2021/08/30 03:26:24;;;;;;;2.80;2.60;;;;;;;23.25;46.28;98339.78;5046100;28;20213;-54
2021/08/30 03:28:52;;;;;;;2.67;2.47;;;;;;;23.25;46.17;98339.78;5045681;28;20197;-53
2021/08/30 03:31:20;;;;;;;2.77;2.30;;;;;;;23.22;46.32;98337.50;5045091;28;20190;-51
2021/08/30 03:33:48;;;;;;;2.33;2.20;;;;;;;23.22;46.46;98339.34;5046074;28;20213;-54
2021/08/30 03:36:15;;;;;;;2.10;2.00;;;;;;;23.21;46.34;98337.72;5045794;28;20202;-52
2021/08/30 03:38:43;;;;;;;2.63;2.43;;;;;;;23.23;46.41;98339.13;5047622;28;20574;-53
2021/08/30 03:41:11;;;;;;;2.60;2.40;;;;;;;23.25;46.32;98334.47;5049195;28;20197;-53
2021/08/30 03:43:38;;;;;;;2.70;2.50;;;;;;;23.27;46.15;98341.47;5049408;28;20217;-51
2021/08/30 03:46:05;;;;;;;2.37;2.17;;;;;;;23.30;46.01;98335.75;5048869;28;20194;-53
2021/08/30 03:48:32;;;;;;;2.57;2.37;;;;;;;23.33;45.98;98327.38;5049266;28;20198;-53
2021/08/30 03:51:00;;;;;;;2.37;2.17;;;;;;;23.28;46.03;98330.59;5049612;28;20678;-53
2021/08/30 03:53:29;;;;;;;2.40;2.13;;;;;;;23.21;46.22;98329.72;5048983;28;20210;-54
2021/08/30 03:55:57;;;;;;;2.43;2.23;;;;;;;23.17;46.26;98331.13;5049270;28;20186;-53
2021/08/30 03:58:25;;;;;;;2.80;2.50;;;;;;;23.17;46.18;98331.13;5049071;28;20221;-52
2021/08/30 04:00:53;;;;;;;2.60;2.40;;;;;;;23.27;45.91;98336.13;5049353;28;20244;-53
2021/08/30 04:03:22;;;;;;;2.60;2.23;;;;;;;23.22;46.10;98340.16;5049396;28;20214;-53
2021/08/30 04:05:50;;;;;;;2.50;2.30;;;;;;;23.19;46.10;98334.44;5049192;28;20196;-52
2021/08/30 04:08:17;;;;;;;2.40;2.20;;;;;;;23.14;46.33;98336.81;5048258;28;20266;-54
2021/08/30 04:10:45;;;;;;;2.50;2.30;;;;;;;23.10;46.35;98331.91;5049431;28;20186;-53
2021/08/30 04:13:11;;;;;;;2.47;2.27;;;;;;;23.11;46.41;98333.53;5049479;28;20212;-53
2021/08/30 04:15:38;;;;;;;2.40;2.20;;;;;;;23.14;46.22;98332.34;5049251;28;20194;-54
2021/08/30 04:18:05;;;;;;;2.50;2.30;;;;;;;23.20;45.83;98336.06;5049491;28;20194;-53
2021/08/30 04:20:31;;;;;;;2.87;2.60;;;;;;;23.21;45.87;98338.50;5049000;28;20190;-52
2021/08/30 04:22:58;;;;;;;2.50;2.30;;;;;;;23.20;45.81;98339.53;5048787;28;20275;-53
2021/08/30 04:25:25;;;;;;;2.43;2.23;;;;;;;23.18;46.06;98338.91;5048620;28;20527;-53
2021/08/30 04:27:51;;;;;;;2.30;2.20;;;;;;;23.14;46.08;98342.97;5049149;28;20193;-53
2021/08/30 04:30:17;;;;;;;2.77;2.57;;;;;;;23.17;46.02;98347.91;5049163;28;20194;-53
2021/08/30 04:32:44;;;;;;;2.73;2.47;;;;;;;23.15;46.01;98347.28;5048253;28;20279;-54
2021/08/30 04:35:10;;;;;;;2.37;2.17;;;;;;;23.15;45.97;98347.28;5048758;28;20182;-54
2021/08/30 04:37:37;;;;;;;2.10;2.00;;;;;;;23.17;45.91;98341.78;5048619;28;20194;-52
2021/08/30 04:40:05;;;;;;;2.43;2.27;;;;;;;23.18;46.03;98338.09;5048983;28;20217;-54
2021/08/30 04:42:32;;;;;;;2.70;2.50;;;;;;;23.16;46.12;98351.59;5048718;28;20214;-52
2021/08/30 04:44:58;;;;;;;2.70;2.50;;;;;;;23.16;46.08;98358.75;5047395;28;20224;-53
2021/08/30 04:47:26;;;;;;;2.73;2.53;;;;;;;23.12;46.11;98355.66;5048885;28;20193;-53
2021/08/30 04:49:52;;;;;;;2.40;2.27;;;;;;;23.14;46.08;98358.13;5048730;28;20194;-49
2021/08/30 04:52:19;;;;;;;2.40;2.20;;;;;;;23.10;46.11;98361.19;5048358;28;20213;-52
2021/08/30 04:54:45;;;;;;;2.40;2.20;;;;;;;23.11;46.24;98362.00;5048473;28;20194;-52
2021/08/30 04:57:12;;;;;;;2.40;2.20;;;;;;;23.12;46.29;98366.31;5048140;28;20592;-54
2021/08/30 04:59:38;;;;;;;2.60;2.40;;;;;;;23.09;46.17;98358.72;5048674;28;20220;-54
2021/08/30 05:02:04;;;;;;;2.30;2.10;;;;;;;23.11;46.20;98362.00;5048264;28;20218;-53
2021/08/30 05:04:32;;;;;;;2.23;2.10;;;;;;;23.12;46.05;98363.66;5048156;28;20274;-53
2021/08/30 05:06:58;;;;;;;2.20;2.10;;;;;;;23.17;45.89;98363.09;5048406;28;20665;-52
2021/08/30 05:09:25;;;;;;;1.93;1.83;;;;;;;23.14;46.09;98369.59;5048092;28;20661;-51
2021/08/30 05:11:51;;;;;;;2.77;2.30;;;;;;;23.14;46.16;98371.44;5047572;28;20726;-53
2021/08/30 05:14:18;;;;;;;2.00;1.90;;;;;;;23.11;46.09;98372.66;5048147;28;20178;-54
2021/08/30 05:16:44;;;;;;;2.50;2.30;;;;;;;23.11;46.12;98372.66;5048195;28;20189;-54
2021/08/30 05:19:10;;;;;;;2.30;2.10;;;;;;;23.11;46.11;98370.81;5048055;28;20190;-54
2021/08/30 05:21:37;;;;;;;2.03;1.93;;;;;;;23.10;46.03;98374.47;5047660;28;20243;-52
2021/08/30 05:24:07;;;;;;;2.17;2.03;;;;;;;23.11;46.10;98370.00;5047866;28;20210;-53
2021/08/30 05:26:34;;;;;;;1.97;1.77;;;;;;;23.11;46.03;98372.66;5047995;28;20230;-53
2021/08/30 05:29:01;;;;;;;2.23;2.07;;;;;;;23.12;46.00;98376.97;5047547;28;20189;-53
2021/08/30 05:31:28;;;;;;;2.57;2.37;;;;;;;23.15;45.94;98381.91;5047780;28;20236;-53
2021/08/30 05:33:57;;;;;;;2.40;2.20;;;;;;;23.14;45.96;98374.94;5047133;28;20225;-53
2021/08/30 05:36:25;;;;;;;2.40;2.20;;;;;;;23.11;45.91;98372.66;5048024;28;20198;-53
2021/08/30 05:38:56;;;;;;;2.40;2.20;;;;;;;23.13;45.95;98373.28;5047852;28;20202;-52
2021/08/30 05:41:22;;;;;;;1.97;1.83;;;;;;;23.13;45.92;98377.78;5047549;28;20285;-52
2021/08/30 05:43:49;;;;;;;2.33;2.13;;;;;;;23.10;45.93;98369.16;5046223;28;20233;-52
2021/08/30 05:46:16;;;;;;;2.20;2.00;;;;;;;23.14;45.96;98377.59;5047227;28;20190;-53
2021/08/30 05:48:47;;;;;;;2.10;2.00;;;;;;;23.14;46.01;98384.72;5047409;28;20194;-51
2021/08/30 05:51:14;;;;;;;2.20;2.00;;;;;;;23.14;45.89;98380.25;5047382;28;20193;-53
2021/08/30 05:53:41;;;;;;;2.07;1.97;;;;;;;23.12;45.77;98390.28;5046946;28;20206;-53
2021/08/30 05:56:09;;;;;;;2.33;2.13;;;;;;;23.12;46.08;98384.94;5047929;28;20198;-53
2021/08/30 05:58:36;;;;;;;2.30;2.13;;;;;;;23.14;45.74;98385.56;5046892;28;20194;-54
2021/08/30 06:01:04;;;;;;;2.27;2.03;;;;;;;23.17;45.54;98387.84;5046268;28;20251;-52
2021/08/30 06:03:31;;;;;;;2.40;2.20;;;;;;;23.23;45.58;98389.72;5047217;28;20220;-53
2021/08/30 06:05:58;;;;;;;2.00;1.90;;;;;;;23.29;45.56;98384.69;5047245;28;20619;-53
2021/08/30 06:08:25;;;;;;;2.30;2.10;;;;;;;23.38;45.26;98383.50;5046683;28;20186;-53
2021/08/30 06:10:51;;;;;;;1.93;1.83;;;;;;;23.46;45.17;98383.38;5047181;28;20232;-53
2021/08/30 06:13:19;;;;;;;2.50;2.30;;;;;;;23.46;45.03;98383.38;5047370;28;20206;-53
2021/08/30 06:15:45;;;;;;;2.13;2.03;;;;;;;23.49;44.93;98388.31;5046826;28;20186;-51
2021/08/30 06:18:12;;;;;;;2.10;2.00;;;;;;;23.50;45.13;98384.63;5046365;28;20190;-53
2021/08/30 06:20:39;;;;;;;2.20;2.10;;;;;;;23.57;44.76;98389.19;5044398;28;20187;-53
2021/08/30 06:23:05;;;;;;;2.77;2.03;;;;;;;23.52;45.19;98385.25;5045878;28;20213;-52
2021/08/30 06:25:32;;;;;;;2.00;1.90;;;;;;;23.57;45.11;98391.84;5045063;28;20202;-53
2021/08/30 06:27:59;;;;;;;4.70;2.20;;;;;;;23.67;45.05;98390.47;5044600;28;20212;-53
2021/08/30 06:30:26;;;;;;;1.90;1.70;;;;;;;23.69;45.06;98382.25;5045263;28;20190;-52
2021/08/30 06:32:52;;;;;;;2.63;2.00;;;;;;;23.73;44.88;98391.53;5045079;28;20205;-54
2021/08/30 06:35:19;;;;;;;2.20;2.00;;;;;;;23.79;44.95;98388.06;5046200;28;20204;-56
2021/08/30 06:37:46;;;;;;;2.00;1.90;;;;;;;23.77;44.84;98384.78;5046314;28;20684;-55
2021/08/30 06:40:13;;;;;;;2.40;1.77;;;;;;;23.83;44.89;98391.16;5047014;28;20216;-55
2021/08/30 06:42:40;;;;;;;3.00;2.10;;;;;;;23.85;44.97;98393.59;5046684;28;20259;-54
2021/08/30 06:45:07;;;;;;;2.33;2.10;;;;;;;23.91;44.85;98395.50;5047353;28;20248;-54
2021/08/30 06:47:34;;;;;;;2.43;2.07;;;;;;;23.93;44.82;98393.47;5047775;28;20228;-53
2021/08/30 06:50:00;;;;;;;2.33;2.00;;;;;;;23.94;44.84;98389.78;5046862;28;20221;-52
2021/08/30 06:52:27;;;;;;;2.47;2.10;;;;;;;23.92;44.90;98392.63;5046669;28;20719;-53
2021/08/30 06:54:53;;;;;;;2.50;1.87;;;;;;;23.88;45.04;98393.22;5048582;28;20182;-53
2021/08/30 06:57:20;;;;;;;2.67;1.60;;;;;;;23.83;45.05;98383.16;5047118;28;20190;-54
2021/08/30 06:59:46;;;;;;;2.13;1.93;;;;;;;23.82;45.13;98385.00;5047995;28;20190;-54
2021/08/30 07:02:13;;;;;;;1.97;1.83;;;;;;;23.88;45.09;98391.38;5047265;28;20214;-53
2021/08/30 07:04:39;;;;;;;1.90;1.80;;;;;;;23.92;45.10;98389.97;5047905;28;20214;-54
2021/08/30 07:07:06;;;;;;;2.30;2.10;;;;;;;23.95;45.06;98386.09;5047069;28;20208;-54
2021/08/30 07:09:33;;;;;;;2.03;1.70;;;;;;;23.99;45.02;98387.31;5047543;28;20186;-54
2021/08/30 07:11:59;;;;;;;2.20;2.07;;;;;;;24.07;44.81;98395.19;5048764;28;20186;-54
2021/08/30 07:14:26;;;;;;;1.83;1.73;;;;;;;24.13;44.77;98387.41;5050992;28;20255;-53
2021/08/30 07:16:52;;;;;;;2.50;2.07;;;;;;;24.16;44.78;98401.19;5051693;28;20263;-54
2021/08/30 07:19:18;;;;;;;2.47;1.63;;;;;;;24.16;44.75;98401.19;5051392;28;20186;-53
2021/08/30 07:21:45;;;;;;;2.50;2.30;;;;;;;24.20;44.86;98404.25;5051521;28;20660;-54
2021/08/30 07:24:11;;;;;;;2.40;2.20;;;;;;;24.21;44.67;98395.25;5046138;28;20210;-55
2021/08/30 07:26:38;;;;;;;2.10;2.00;;;;;;;24.20;44.68;98396.25;5049469;28;20213;-54
2021/08/30 07:29:05;;;;;;;2.00;1.90;;;;;;;24.19;44.80;98405.25;5049002;28;20194;-50
2021/08/30 07:31:31;;;;;;;2.30;2.10;;;;;;;24.17;44.69;98404.66;5050082;28;20205;-53
2021/08/30 07:33:58;;;;;;;1.97;1.87;;;;;;;24.15;44.83;98401.38;5050720;28;20224;-54
2021/08/30 07:36:25;;;;;;;2.10;2.00;;;;;;;24.13;44.84;98398.06;5049629;28;20198;-53
2021/08/30 07:38:51;;;;;;;2.00;1.90;;;;;;;24.14;44.92;98402.38;5048726;28;20205;-54
2021/08/30 07:41:17;;;;;;;2.60;2.40;;;;;;;24.14;44.96;98405.88;5049543;28;20244;-50
2021/08/30 07:43:44;;;;;;;2.20;2.00;;;;;;;24.16;44.99;98413.66;5047004;28;20213;-53
2021/08/30 07:46:11;;;;;;;3.30;2.27;;;;;;;24.17;45.01;98408.16;5046755;28;20210;-52
2021/08/30 07:48:38;;;;;;;1.90;1.80;;;;;;;24.06;45.46;98409.53;5048385;28;20220;-52
2021/08/30 07:51:04;;;;;;;1.80;1.70;;;;;;;24.06;45.38;98409.53;5049130;28;20194;-51
2021/08/30 07:53:31;;;;;;;2.00;1.90;;;;;;;24.09;45.38;98414.47;5048903;28;20360;-55
2021/08/30 07:55:57;;;;;;;2.20;2.10;;;;;;;24.09;45.40;98413.63;5049088;28;20201;-55
2021/08/30 07:58:23;;;;;;;2.10;1.90;;;;;;;24.06;45.13;98414.88;5049050;28;20189;-55
2021/08/30 08:00:51;;;;;;;2.73;2.13;;;;;;;24.02;45.20;98413.59;5049254;28;20194;-55
2021/08/30 08:03:18;;;;;;;2.40;2.20;;;;;;;24.02;45.18;98416.28;5048851;28;20217;-53
2021/08/30 08:05:44;;;;;;;2.77;2.07;;;;;;;24.02;45.31;98418.09;5049693;28;20205;-53
2021/08/30 08:08:11;;;;;;;2.37;2.17;;;;;;;23.99;45.49;98429.16;5048816;28;20257;-53
2021/08/30 08:10:37;;;;;;;2.33;2.00;;;;;;;23.93;45.58;98420.91;5050212;28;20198;-54
2021/08/30 08:13:05;;;;;;;2.03;1.93;;;;;;;23.96;45.78;98425.03;5050379;28;20214;-54
2021/08/30 08:15:32;;;;;;;2.60;2.10;;;;;;;23.98;45.69;98428.31;5050538;28;20186;-54
2021/08/30 08:17:58;;;;;;;2.20;2.10;;;;;;;23.98;45.66;98433.66;5050090;28;20195;-55
2021/08/30 08:20:25;;;;;;;2.20;2.10;;;;;;;24.01;45.66;98441.25;5049626;28;20194;-54
2021/08/30 08:22:51;;;;;;;2.40;2.20;;;;;;;24.00;45.59;98447.59;5049285;28;20218;-54
2021/08/30 08:25:18;;;;;;;2.40;2.20;;;;;;;24.02;45.49;98445.59;5048503;28;20206;-55
2021/08/30 08:27:45;;;;;;;2.70;2.50;;;;;;;24.08;45.37;98441.31;5048231;28;20220;-53
2021/08/30 08:30:11;;;;;;;2.43;2.23;;;;;;;24.07;45.58;98445.84;5046950;28;20683;-54
2021/08/30 08:32:40;;;;;;;2.50;2.30;;;;;;;24.17;45.18;98436.63;5047822;28;20206;-55
2021/08/30 08:35:09;;;;;;;2.50;2.30;;;;;;;24.17;45.19;98442.81;5047763;28;20240;-57
2021/08/30 08:37:36;;;;;;;2.43;2.17;;;;;;;24.15;45.31;98441.34;5047032;28;20198;-56
2021/08/30 08:40:05;;;;;;;2.57;2.37;;;;;;;24.08;45.47;98444.81;5047942;28;20203;-56
2021/08/30 08:42:32;;;;;;;3.20;2.60;;;;;;;24.06;45.58;98448.69;5047835;28;20264;-56
2021/08/30 08:45:02;;;;;;;2.80;2.50;;;;;;;24.05;45.44;98449.72;5046577;28;20271;-56
2021/08/30 08:47:30;;;;;;;2.67;2.40;;;;;;;24.04;45.33;98454.22;5046608;28;20529;-56
2021/08/30 08:49:57;;;;;;;6.40;3.77;;;;;;;24.01;45.49;98457.25;5045543;28;20186;-55
2021/08/30 08:52:26;;;;;;;6.43;3.00;;;;;;;24.00;45.56;98458.28;5046512;28;20210;-56
2021/08/30 08:54:53;;;;;;;4.10;2.73;;;;;;;24.02;45.52;98460.75;5045618;28;20186;-55
2021/08/30 08:57:20;;;;;;;2.93;2.57;;;;;;;23.98;45.52;98464.84;5046795;28;20221;-56
2021/08/30 08:59:56;;;;;;;3.00;2.70;;;;;;;23.96;45.56;98462.34;5047518;28;20610;-56
2021/08/30 09:02:29;;;;;;;2.53;2.33;;;;;;;23.95;45.56;98469.50;5046009;28;20206;-55
2021/08/30 09:04:57;;;;;;;3.30;3.00;;;;;;;23.98;45.40;98470.97;5046699;28;20199;-55
2021/08/30 09:07:47;;;;;;;3.73;2.90;;;;;;;23.94;45.57;98469.72;5048588;28;20186;-55
2021/08/30 09:10:14;;;;;;;2.80;2.60;;;;;;;24.04;45.25;98470.22;5048725;28;20224;-55
2021/08/30 09:12:43;;;;;;;3.60;2.80;;;;;;;24.08;45.10;98458.16;5048291;28;20214;-55
2021/08/30 09:15:30;;;;;;;4.23;3.00;;;;;;;24.07;45.16;98463.66;5047946;28;20189;-55
2021/08/30 09:17:57;;;;;;;2.93;2.63;;;;;;;24.12;45.01;98465.75;5047603;28;20182;-55
2021/08/30 09:20:27;;;;;;;4.73;2.60;;;;;;;24.14;44.95;98474.38;5047860;28;20660;-55
2021/08/30 09:22:54;;;;;;;2.80;2.60;;;;;;;24.04;45.12;98464.88;5047582;28;20563;-55
2021/08/30 09:25:21;;;;;;;3.30;2.73;;;;;;;24.03;45.19;98468.56;5047903;28;20213;-55
2021/08/30 09:27:51;;;;;;;3.97;2.97;;;;;;;24.02;45.02;98469.59;5048042;28;20198;-53
2021/08/30 09:30:24;;;;;;;4.50;2.67;;;;;;;24.05;45.23;98466.53;5047730;28;20182;-55
2021/08/30 09:32:51;;;;;;;3.23;2.80;;;;;;;24.03;45.23;98463.22;5048400;28;20274;-55
2021/08/30 09:35:18;;;;;;;5.07;2.70;;;;;;;24.01;45.26;98465.25;5047503;28;20621;-56
2021/08/30 09:37:46;;;;;;;2.60;2.40;;;;;;;24.01;45.44;98467.91;5047379;28;20198;-56
2021/08/30 09:40:15;;;;;;;3.63;3.33;;;;;;;24.05;45.21;98468.38;5047320;28;20194;-58
2021/08/30 09:42:51;;;;;;;3.20;3.00;;;;;;;24.03;45.38;98473.88;5046009;28;20218;-56
2021/08/30 09:45:24;;;;;;;3.60;3.30;;;;;;;24.01;45.36;98465.25;5047268;28;20261;-56
2021/08/30 09:47:55;;;;;;;3.50;3.20;;;;;;;23.97;45.28;98469.31;5047265;28;20186;-56
2021/08/30 09:50:33;;;;;;;3.90;3.10;;;;;;;23.97;45.33;98464.00;5047607;28;20244;-56
2021/08/30 09:53:03;;;;;;;3.13;2.83;;;;;;;23.89;45.43;98462.31;5047124;28;20205;-56
2021/08/30 09:55:31;;;;;;;3.33;3.03;;;;;;;23.92;45.51;98467.25;5046484;28;20221;-56
2021/08/30 09:57:58;;;;;;;3.47;3.17;;;;;;;23.89;45.52;98472.16;5047270;28;20186;-55
2021/08/30 10:00:25;;;;;;;3.70;3.13;;;;;;;23.90;45.54;98468.47;5047283;28;20197;-56
2021/08/30 10:02:57;;;;;;;3.23;3.03;;;;;;;23.89;45.38;98461.50;5047203;28;20270;-56
2021/08/30 10:05:25;;;;;;;3.63;3.27;;;;;;;23.87;45.59;98466.19;5046348;28;20656;-56
2021/08/30 10:07:55;;;;;;;3.20;3.00;;;;;;;23.88;45.38;98467.81;5047364;28;20209;-55
2021/08/30 10:10:23;;;;;;;3.87;3.43;;;;;;;23.86;45.38;98467.19;5047248;28;20197;-55
2021/08/30 10:12:51;;;;;;;3.53;3.23;;;;;;;23.88;45.50;98473.16;5043267;28;20264;-56
2021/08/30 10:15:21;;;;;;;3.30;3.00;;;;;;;23.86;45.45;98475.19;5042138;28;20194;-56
2021/08/30 10:17:49;;;;;;;3.40;3.10;;;;;;;23.87;45.44;98472.34;5043857;28;20213;-55
2021/08/30 10:20:26;;;;;;;7.87;3.93;;;;;;;23.86;45.51;98472.53;5044414;28;20168;-54
2021/08/30 10:23:03;;;;;;;14.57;5.00;;;;;;;23.87;45.59;98471.50;5044235;28;20210;-54
2021/08/30 10:25:31;;;;;;;98.60;14.53;;;;;;;23.87;45.45;98467.03;5041474;28;20664;-54
2021/08/30 10:28:08;;;;;;;18.67;5.53;;;;;;;23.87;45.59;98475.00;5043761;28;20190;-55
2021/08/30 10:30:36;;;;;;;32.93;7.27;;;;;;;23.87;45.53;98469.69;5044207;28;20178;-55
2021/08/30 10:33:08;;;;;;;44.67;7.97;;;;;;;23.91;45.48;98464.78;5043622;28;20210;-55
2021/08/30 10:35:38;;;;;;;52.20;8.70;;;;;;;23.90;45.34;98469.28;5043301;28;20194;-54
2021/08/30 10:38:14;;;;;;;56.33;11.33;;;;;;;23.84;45.67;98470.09;5043979;28;20197;-53
2021/08/30 10:40:40;;;;;;;44.60;8.87;;;;;;;23.88;45.62;98470.50;5043617;28;20177;-54
2021/08/30 10:43:15;;;;;;;65.10;11.50;;;;;;;23.88;45.64;98465.16;5042988;28;20217;-54
2021/08/30 10:46:02;;;;;;;61.90;10.73;;;;;;;23.89;45.62;98469.50;5044049;28;20217;-55
2021/08/30 10:48:34;;;;;;;57.70;9.33;;;;;;;23.89;45.68;98466.84;5042578;28;20538;-55
2021/08/30 10:51:18;;;;;;;29.50;6.87;;;;;;;23.91;45.64;98472.78;5043342;28;20301;-55
2021/08/30 10:53:55;;;;;;;31.60;7.50;;;;;;;23.90;45.63;98477.28;5043667;28;20292;-55
2021/08/30 10:56:32;;;;;;;42.63;8.63;;;;;;;23.88;45.66;98475.81;5043223;28;20178;-55
2021/08/30 10:59:12;;;;;;;34.07;7.80;;;;;;;23.86;45.85;98483.19;5044079;28;20189;-53
2021/08/30 11:01:51;;;;;;;47.43;9.57;;;;;;;23.89;45.70;98474.84;5044238;28;20182;-54
2021/08/30 11:04:28;;;;;;;42.43;9.63;;;;;;;23.88;45.76;98486.47;5043254;28;20202;-55
2021/08/30 11:06:55;;;;;;;37.50;8.93;;;;;;;23.84;45.75;98475.41;5043335;28;20268;-54
2021/08/30 11:09:22;;;;;;;34.33;8.27;;;;;;;23.82;45.81;98477.44;5044510;28;20589;-52
2021/08/30 11:11:50;;;;;;;24.13;7.50;;;;;;;23.80;45.76;98472.31;5045410;28;20197;-51
2021/08/30 11:14:19;;;;;;;29.53;7.87;;;;;;;23.84;45.84;98479.91;5044171;28;20248;-51
2021/08/30 11:16:54;;;;;;;26.03;7.60;;;;;;;23.80;45.88;98474.97;5043929;28;20194;-53
2021/08/30 11:19:21;;;;;;;23.87;8.60;;;;;;;23.81;45.87;98478.47;5041413;28;20686;-55
2021/08/30 11:21:54;;;;;;;23.67;6.70;;;;;;;23.82;45.81;98470.25;5041315;28;20181;-55
2021/08/30 11:24:36;;;;;;;21.63;6.80;;;;;;;23.82;45.96;98469.47;5041365;28;20182;-55
2021/08/30 11:27:09;;;;;;;24.60;7.53;;;;;;;23.87;45.62;98463.50;5041458;28;20214;-55
2021/08/30 11:29:44;;;;;;;24.00;7.50;;;;;;;23.91;45.65;98464.78;5041579;28;20163;-56
2021/08/30 11:32:11;;;;;;;18.23;7.27;;;;;;;23.92;45.69;98461.09;5040932;28;20248;-56
2021/08/30 11:34:38;;;;;;;21.27;8.33;;;;;;;23.92;45.60;98459.25;5041138;28;20190;-56
2021/08/30 11:37:07;;;;;;;17.43;7.30;;;;;;;23.87;45.76;98461.69;5040977;28;20217;-52
2021/08/30 11:39:37;;;;;;;17.37;7.53;;;;;;;23.87;45.60;98466.19;5040318;28;20248;-56
2021/08/30 11:42:07;;;;;;;18.57;6.83;;;;;;;23.81;45.82;98463.28;5041262;28;20221;-54
2021/08/30 11:44:36;;;;;;;19.60;8.10;;;;;;;23.77;45.89;98472.69;5040865;28;20198;-56